Time;durP1;ratioP1;P1;durP2;ratioP2;P2;SDS_P1;SDS_P2;PMS_P1;PMS_P2;Temp;Humidity;BMP_temperature;BMP_pressure;BME280_temperature;BME280_humidity;BME280_pressure;Samples;Min_cycle;Max_cycle;Signal;HPM_P1;HPM_P2
2021/11/20 00:02:26;;;;;;;18.15;11.75;;;;;;;9.88;100.00;98750.34;4950940;29;20294;-80
2021/11/20 00:04:54;;;;;;;24.77;10.95;;;;;;;9.88;100.00;98744.94;4953664;28;20051;-79
2021/11/20 00:07:22;;;;;;;25.65;11.05;;;;;;;9.80;100.00;98739.34;4953821;28;20154;-80
2021/11/20 00:09:50;;;;;;;23.45;10.95;;;;;;;9.83;100.00;98744.97;4955804;29;20051;-79
2021/11/20 00:12:21;;;;;;;21.08;11.00;;;;;;;9.80;100.00;98742.88;4954842;28;20075;-79
2021/11/20 00:14:49;;;;;;;18.02;10.00;;;;;;;9.83;100.00;98734.16;4967996;29;20039;-80
2021/11/20 00:17:15;;;;;;;18.10;10.57;;;;;;;9.81;100.00;98747.16;4970155;28;20114;-79
2021/11/20 00:19:43;;;;;;;18.45;11.13;;;;;;;9.77;100.00;98738.03;4971090;29;20047;-80
2021/11/20 00:22:22;;;;;;;19.35;10.85;;;;;;;9.84;100.00;98740.38;4968513;29;20062;-79
2021/11/20 00:24:56;;;;;;;19.30;10.43;;;;;;;9.89;100.00;98743.06;4964777;29;20046;-80
2021/11/20 00:27:32;;;;;;;20.60;10.07;;;;;;;9.83;100.00;98752.31;4968259;29;20098;-80
2021/11/20 00:30:03;;;;;;;19.80;11.02;;;;;;;9.86;100.00;98739.00;4964258;29;20090;-79
2021/11/20 00:32:34;;;;;;;18.85;10.30;;;;;;;9.77;100.00;98739.91;4965238;29;20058;-80
2021/11/20 00:35:05;;;;;;;20.60;10.98;;;;;;;9.82;100.00;98748.78;4963851;29;20055;-80
2021/11/20 00:37:33;;;;;;;20.73;10.85;;;;;;;9.81;100.00;98762.59;4964217;29;20051;-79
2021/11/20 00:39:59;;;;;;;25.25;10.93;;;;;;;9.83;100.00;98758.50;4964535;29;20083;-80
2021/11/20 00:42:26;;;;;;;19.30;10.50;;;;;;;9.80;100.00;98766.41;4964647;29;20063;-80
2021/11/20 00:44:52;;;;;;;20.55;11.23;;;;;;;9.75;100.00;98761.03;4964909;29;20098;-79
2021/11/20 00:47:19;;;;;;;24.20;11.07;;;;;;;9.75;100.00;98751.03;4966329;29;20055;-78
2021/11/20 00:49:47;;;;;;;17.63;11.10;;;;;;;9.75;100.00;98755.63;4964392;29;20054;-78
2021/11/20 00:52:14;;;;;;;23.67;11.38;;;;;;;9.77;100.00;98748.84;4957816;29;20150;-78
2021/11/20 00:54:42;;;;;;;19.30;10.75;;;;;;;9.78;100.00;98755.84;4957099;29;20057;-78
2021/11/20 00:57:10;;;;;;;19.60;11.25;;;;;;;9.79;100.00;98746.66;4957380;28;20058;-80
2021/11/20 00:59:38;;;;;;;25.83;11.85;;;;;;;9.73;100.00;98741.59;4954478;29;20090;-80
2021/11/20 01:02:06;;;;;;;21.60;11.45;;;;;;;9.73;100.00;98731.53;4955879;29;20142;-80
2021/11/20 01:04:34;;;;;;;19.80;11.48;;;;;;;9.72;100.00;98748.06;4955229;29;20082;-80
2021/11/20 01:07:02;;;;;;;25.90;11.63;;;;;;;9.77;100.00;98735.31;4956754;29;20086;-78
2021/11/20 01:09:33;;;;;;;20.98;12.38;;;;;;;9.86;100.00;98744.41;4956293;29;20468;-78
2021/11/20 01:12:08;;;;;;;19.83;10.93;;;;;;;9.73;100.00;98745.06;4955309;28;20471;-80
2021/11/20 01:14:35;;;;;;;21.67;11.90;;;;;;;9.74;100.00;98741.28;4955069;29;20253;-80
2021/11/20 01:17:05;;;;;;;22.45;11.13;;;;;;;9.87;100.00;98743.34;4956023;29;20102;-81
2021/11/20 01:19:32;;;;;;;21.50;11.23;;;;;;;9.89;100.00;98743.88;4956291;29;20061;-78
2021/11/20 01:22:01;;;;;;;20.27;10.75;;;;;;;9.91;100.00;98743.59;4954900;28;20074;-80
2021/11/20 01:24:28;;;;;;;23.88;11.05;;;;;;;9.85;100.00;98742.00;4959892;28;20067;-79
2021/11/20 01:26:56;;;;;;;21.17;10.55;;;;;;;9.84;100.00;98741.19;4969534;28;20082;-79
2021/11/20 01:29:23;;;;;;;20.30;11.15;;;;;;;9.83;100.00;98739.56;4966628;28;20062;-81
2021/11/20 01:31:52;;;;;;;18.55;11.30;;;;;;;9.85;100.00;98740.13;4955337;29;20587;-80
2021/11/20 01:34:22;;;;;;;18.60;10.80;;;;;;;9.88;100.00;98736.03;4953932;29;20490;-80
2021/11/20 01:36:51;;;;;;;20.77;10.90;;;;;;;9.89;100.00;98737.63;4955310;29;20142;-79
2021/11/20 01:39:28;;;;;;;21.17;10.10;;;;;;;9.87;100.00;98735.22;4953688;29;20118;-77
2021/11/20 01:42:03;;;;;;;21.08;10.48;;;;;;;9.85;100.00;98742.84;4953499;29;20082;-78
2021/11/20 01:44:40;;;;;;;19.80;10.75;;;;;;;9.90;100.00;98733.84;4954915;29;20051;-81
2021/11/20 01:47:22;;;;;;;21.38;10.50;;;;;;;9.86;100.00;98732.78;4955604;28;20094;-80
2021/11/20 01:50:05;;;;;;;17.58;10.43;;;;;;;9.88;100.00;98717.91;4954773;28;20059;-78
2021/11/20 01:52:50;;;;;;;20.90;10.15;;;;;;;9.82;100.00;98727.16;4955112;29;20055;-80
2021/11/20 01:55:32;;;;;;;22.38;11.07;;;;;;;9.86;100.00;98730.09;4954810;29;20089;-80
2021/11/20 01:58:07;;;;;;;22.05;10.63;;;;;;;9.85;100.00;98717.69;4954243;29;20051;-80
2021/11/20 02:00:52;;;;;;;;;;;;;;;9.81;100.00;98720.13;4954424;29;20047;-79
2021/11/20 02:03:32;;;;;;;19.25;10.88;;;;;;;9.81;100.00;98711.19;4953983;29;19922;-79
2021/11/20 02:06:15;;;;;;;21.77;9.98;;;;;;;9.75;100.00;98709.66;4954589;29;20082;-79
2021/11/20 02:09:14;;;;;;;20.13;10.52;;;;;;;9.75;100.00;98698.84;4954912;29;20051;-80
2021/11/20 02:12:12;;;;;;;20.65;10.70;;;;;;;9.83;100.00;98717.16;4953525;29;20063;-80
2021/11/20 02:14:40;;;;;;;23.08;10.52;;;;;;;9.88;100.00;98698.97;4953127;29;20047;-81
2021/11/20 02:17:19;;;;;;;21.38;10.65;;;;;;;9.82;100.00;98700.13;4954189;29;20055;-80
2021/11/20 02:19:50;;;;;;;21.88;10.38;;;;;;;9.83;100.00;98706.34;4956603;29;20110;-78
2021/11/20 02:22:35;;;;;;;19.70;10.30;;;;;;;9.77;100.00;98708.28;4959029;28;20043;-78
2021/11/20 02:25:02;;;;;;;26.85;11.93;;;;;;;9.86;100.00;98705.75;4954909;29;20622;-80
2021/11/20 02:27:35;;;;;;;21.20;11.30;;;;;;;9.80;100.00;98702.31;4955729;29;20055;-80
2021/11/20 02:30:19;;;;;;;19.70;10.70;;;;;;;9.80;100.00;98707.72;4953677;29;20102;-78
2021/11/20 02:32:53;;;;;;;23.00;11.48;;;;;;;9.79;100.00;98694.47;4959814;28;20059;-80
2021/11/20 02:35:26;;;;;;;22.05;10.82;;;;;;;9.74;100.00;98683.69;4954804;29;20055;-79
2021/11/20 02:37:53;;;;;;;16.77;10.18;;;;;;;9.73;100.00;98684.78;4955524;29;20055;-80
2021/11/20 02:40:20;;;;;;;23.10;11.32;;;;;;;9.65;100.00;98669.97;4954874;28;20562;-80
2021/11/20 02:42:47;;;;;;;21.20;10.60;;;;;;;9.79;100.00;98679.03;4957879;29;20047;-79
2021/11/20 02:45:34;;;;;;;17.67;9.60;;;;;;;9.76;100.00;98679.59;4957426;29;20457;-79
2021/11/20 02:48:01;;;;;;;17.90;9.90;;;;;;;9.84;100.00;98678.19;4957629;29;20302;-78
2021/11/20 02:50:33;;;;;;;18.15;10.88;;;;;;;9.82;100.00;98683.88;4957102;29;20047;-78
2021/11/20 02:53:01;;;;;;;18.38;10.60;;;;;;;9.76;100.00;98676.09;4958022;28;20491;-81
2021/11/20 02:55:27;;;;;;;17.40;10.38;;;;;;;9.70;100.00;98688.88;4957770;29;20157;-80
2021/11/20 02:57:54;;;;;;;19.50;10.18;;;;;;;9.70;100.00;98686.16;4958240;29;20079;-79
2021/11/20 03:00:21;;;;;;;17.63;9.57;;;;;;;9.77;100.00;98683.94;4956717;29;20235;-79
2021/11/20 03:02:48;;;;;;;20.60;10.20;;;;;;;9.81;100.00;98676.84;4957518;28;20055;-78
2021/11/20 03:05:15;;;;;;;20.70;10.60;;;;;;;9.84;100.00;98691.72;4956874;29;20555;-80
2021/11/20 03:07:41;;;;;;;16.55;9.07;;;;;;;9.79;100.00;98686.34;4957055;29;20094;-80
2021/11/20 03:10:08;;;;;;;18.50;10.02;;;;;;;9.78;100.00;98682.03;4957095;29;20138;-78
2021/11/20 03:12:35;;;;;;;20.15;10.15;;;;;;;9.84;100.00;98684.41;4956756;29;20347;-78
2021/11/20 03:15:04;;;;;;;17.55;9.52;;;;;;;9.70;100.00;98686.16;4957087;28;20079;-81
2021/11/20 03:17:32;;;;;;;19.92;9.50;;;;;;;9.77;100.00;98692.06;4956014;29;20052;-79
2021/11/20 03:19:59;;;;;;;16.92;9.63;;;;;;;9.83;100.00;98696.31;4957176;29;20051;-79
2021/11/20 03:22:31;;;;;;;20.58;10.48;;;;;;;9.78;100.00;98693.63;4955890;29;20058;-79
2021/11/20 03:24:58;;;;;;;20.00;10.60;;;;;;;9.73;100.00;98685.56;4957481;29;20055;-78
2021/11/20 03:27:24;;;;;;;19.65;10.05;;;;;;;9.72;100.00;98675.88;4955534;28;20114;-79
2021/11/20 03:29:52;;;;;;;18.17;9.82;;;;;;;9.66;100.00;98674.28;4977207;23;20101;-85
2021/11/20 03:32:19;;;;;;;16.27;9.32;;;;;;;9.71;100.00;98676.13;4993074;28;20117;-85
2021/11/20 03:34:46;;;;;;;18.60;9.20;;;;;;;9.68;100.00;98669.41;4977415;28;20051;-84
2021/11/20 03:37:14;;;;;;;18.60;9.75;;;;;;;9.66;100.00;98676.19;4994046;28;20061;-85
2021/11/20 03:39:42;;;;;;;21.25;9.38;;;;;;;9.61;100.00;98658.09;4979372;28;20047;-83
2021/11/20 03:42:09;;;;;;;16.95;9.52;;;;;;;9.64;100.00;98662.16;4993648;28;20054;-85
2021/11/20 03:44:36;;;;;;;18.50;9.35;;;;;;;9.55;100.00;98653.03;4990071;23;20058;-88
2021/11/20 03:47:03;;;;;;;18.58;9.40;;;;;;;9.54;100.00;98648.72;4996084;28;20042;-88
2021/11/20 03:49:30;;;;;;;19.42;10.07;;;;;;;9.63;100.00;98669.44;4980489;28;20069;-86
2021/11/20 03:51:57;;;;;;;19.38;10.02;;;;;;;9.64;100.00;98657.53;4997295;28;20078;-88
2021/11/20 03:54:27;;;;;;;17.13;9.10;;;;;;;9.68;100.00;98661.28;4979334;28;20081;-86
2021/11/20 03:56:57;;;;;;;20.05;10.20;;;;;;;9.54;100.00;98627.09;4979803;28;20118;-88
2021/11/20 03:59:24;;;;;;;19.45;10.77;;;;;;;9.63;100.00;98647.81;4979538;28;20061;-86
2021/11/20 04:01:51;;;;;;;17.52;10.43;;;;;;;9.53;100.00;98647.91;4998874;28;20056;-87
2021/11/20 04:04:20;;;;;;;17.60;10.45;;;;;;;9.75;100.00;98660.97;4979571;28;20050;-87
2021/11/20 04:06:47;;;;;;;17.83;10.73;;;;;;;9.60;100.00;98639.47;4983992;28;20054;-87
2021/11/20 04:09:15;;;;;;;18.65;9.98;;;;;;;9.64;100.00;98657.53;4986182;28;20046;-88
2021/11/20 04:11:44;;;;;;;21.15;11.05;;;;;;;9.79;100.00;98667.41;5001974;28;20051;-90
2021/11/20 04:14:14;;;;;;;20.85;10.95;;;;;;;9.65;100.00;98644.84;4979716;28;20499;-88
2021/11/20 04:16:41;;;;;;;19.80;10.30;;;;;;;9.69;100.00;98664.81;4996735;28;20058;-88
2021/11/20 04:19:09;;;;;;;20.02;9.70;;;;;;;9.50;100.00;98628.75;4997689;28;20058;-88
2021/11/20 04:21:36;;;;;;;22.90;9.95;;;;;;;9.55;100.00;98645.72;4979487;28;20050;-86
2021/11/20 04:24:05;;;;;;;20.13;9.65;;;;;;;9.69;100.00;98672.91;4996436;28;20235;-87
2021/11/20 04:26:33;;;;;;;18.00;10.23;;;;;;;9.63;100.00;98653.22;4979949;28;20081;-88
2021/11/20 04:28:59;;;;;;;23.55;10.40;;;;;;;9.47;100.00;98635.53;4979122;28;20061;-87
2021/11/20 04:31:27;;;;;;;17.77;9.70;;;;;;;9.53;100.00;98647.91;4996541;28;20050;-87
2021/11/20 04:33:55;;;;;;;18.83;10.90;;;;;;;9.57;100.00;98653.56;4996895;28;20522;-86
2021/11/20 04:36:23;;;;;;;17.95;11.15;;;;;;;9.58;100.00;98650.56;4979134;28;20057;-88
2021/11/20 04:38:51;;;;;;;20.67;10.98;;;;;;;9.53;100.00;98649.78;4980033;28;20522;-86
2021/11/20 04:41:18;;;;;;;20.15;10.88;;;;;;;9.56;100.00;98652.75;4997856;28;20108;-85
2021/11/20 04:43:47;;;;;;;22.30;11.30;;;;;;;9.61;100.00;98644.59;4984667;28;20113;-88
2021/11/20 04:46:16;;;;;;;19.98;10.27;;;;;;;9.46;100.00;98625.81;4956573;28;20149;-86
2021/11/20 04:48:43;;;;;;;20.55;11.95;;;;;;;9.27;100.00;98611.34;4957260;28;20057;-84
2021/11/20 04:51:10;;;;;;;21.50;11.32;;;;;;;9.27;100.00;98608.66;4958511;28;20062;-87
2021/11/20 04:53:39;;;;;;;21.30;11.63;;;;;;;9.50;100.00;98628.75;4976229;28;20067;-87
2021/11/20 04:56:08;;;;;;;26.55;11.52;;;;;;;9.53;100.00;98639.78;4976045;28;20115;-85
2021/11/20 04:58:37;;;;;;;21.52;11.20;;;;;;;9.38;100.00;98619.13;4959034;28;20050;-88
2021/11/20 05:01:05;;;;;;;24.40;11.85;;;;;;;9.42;100.00;98613.16;4973729;28;20055;-89
2021/11/20 05:03:37;;;;;;;22.92;11.55;;;;;;;9.36;100.00;98601.56;4957430;28;20154;-88
2021/11/20 05:06:04;;;;;;;21.65;9.65;;;;;;;9.49;100.00;98636.06;4975792;28;20117;-85
2021/11/20 05:08:31;;;;;;;19.90;10.90;;;;;;;9.51;100.00;98630.34;4958894;28;20305;-87
2021/11/20 05:10:59;;;;;;;19.05;10.10;;;;;;;9.47;100.00;98613.09;4976898;28;20082;-87
2021/11/20 05:13:26;;;;;;;22.77;10.57;;;;;;;9.52;100.00;98608.47;4961988;28;20052;-87
2021/11/20 05:15:57;;;;;;;20.05;10.50;;;;;;;9.47;100.00;98602.28;4959025;28;20057;-89
2021/11/20 05:18:26;;;;;;;20.15;10.20;;;;;;;9.57;100.00;98627.34;4977644;28;20059;-86
2021/11/20 05:20:54;;;;;;;19.35;10.02;;;;;;;9.55;100.00;98621.38;4957882;28;20061;-87
2021/11/20 05:23:22;;;;;;;19.05;11.05;;;;;;;9.55;100.00;98613.28;4959079;28;20050;-87
2021/11/20 05:25:51;;;;;;;16.58;9.40;;;;;;;9.54;100.00;98614.38;4959068;28;20105;-87
2021/11/20 05:28:18;;;;;;;16.23;10.05;;;;;;;9.52;100.00;98613.88;4957579;28;20121;-86
2021/11/20 05:30:47;;;;;;;22.42;10.27;;;;;;;9.56;100.00;98625.72;4957956;28;20415;-84
2021/11/20 05:33:19;;;;;;;16.23;9.90;;;;;;;9.72;100.00;98643.41;4957892;28;20065;-87
2021/11/20 05:35:48;;;;;;;15.80;9.77;;;;;;;9.68;100.00;98641.56;4959741;28;20046;-84
2021/11/20 05:38:15;;;;;;;19.15;9.98;;;;;;;9.65;100.00;98634.03;4976055;28;20158;-85
2021/11/20 05:40:42;;;;;;;18.92;9.90;;;;;;;9.60;100.00;98621.34;4969266;28;20272;-87
2021/11/20 05:43:17;;;;;;;18.83;10.45;;;;;;;9.66;100.00;98643.72;4992276;28;20039;-87
2021/11/20 05:45:47;;;;;;;16.85;9.57;;;;;;;9.70;100.00;98642.09;4961398;28;20074;-87
2021/11/20 05:48:14;;;;;;;20.23;10.05;;;;;;;9.58;100.00;98611.91;4957513;28;20059;-86
2021/11/20 05:50:41;;;;;;;20.02;9.07;;;;;;;9.73;100.00;98628.78;4974072;28;20131;-86
2021/11/20 05:53:13;;;;;;;17.02;10.07;;;;;;;9.65;100.00;98632.09;4974051;28;20196;-87
2021/11/20 05:55:40;;;;;;;19.20;10.10;;;;;;;9.56;100.00;98614.91;4957710;28;20047;-87
2021/11/20 05:58:08;;;;;;;16.88;9.93;;;;;;;9.53;100.00;98609.25;4962547;28;20082;-87
2021/11/20 06:00:37;;;;;;;20.17;11.25;;;;;;;9.62;100.00;98635.41;4961759;28;20058;-83
2021/11/20 06:03:04;;;;;;;22.73;10.68;;;;;;;9.68;100.00;98623.44;4961389;29;20062;-86
2021/11/20 06:05:33;;;;;;;24.98;10.48;;;;;;;9.60;100.00;98628.66;4957370;28;20488;-87
2021/11/20 06:08:00;;;;;;;15.63;10.40;;;;;;;9.56;100.00;98628.41;4938546;29;20082;-85
2021/11/20 06:10:27;;;;;;;16.88;9.68;;;;;;;9.66;100.00;98639.13;4938713;29;20054;-86
2021/11/20 06:12:54;;;;;;;19.73;10.07;;;;;;;9.54;100.00;98617.09;4937168;29;20086;-86
2021/11/20 06:15:23;;;;;;;18.40;10.82;;;;;;;9.57;100.00;98630.03;4938341;29;20047;-81
2021/11/20 06:17:50;;;;;;;17.55;9.93;;;;;;;9.53;100.00;98636.28;4956374;29;20051;-80
2021/11/20 06:20:18;;;;;;;18.85;10.70;;;;;;;9.46;100.00;98616.88;4963005;28;20514;-84
2021/11/20 06:22:45;;;;;;;21.65;10.85;;;;;;;9.46;100.00;98635.81;4975795;28;20094;-84
2021/11/20 06:25:12;;;;;;;19.60;11.10;;;;;;;9.38;100.00;98627.22;4975614;28;20054;-86
2021/11/20 06:27:39;;;;;;;22.92;11.52;;;;;;;9.55;100.00;98664.63;4975244;28;20459;-83
2021/11/20 06:30:08;;;;;;;24.92;11.70;;;;;;;9.60;100.00;98658.41;4975817;28;20062;-83
2021/11/20 06:32:35;;;;;;;20.33;11.55;;;;;;;9.49;100.00;98649.56;4955858;28;20090;-83
2021/11/20 06:35:03;;;;;;;24.35;12.52;;;;;;;9.51;100.00;98666.31;4958004;28;20074;-85
2021/11/20 06:37:29;;;;;;;23.38;12.55;;;;;;;9.59;100.00;98668.41;4971987;28;20113;-84
2021/11/20 06:39:56;;;;;;;25.27;12.25;;;;;;;9.59;100.00;98667.59;4960478;28;20081;-83
2021/11/20 06:42:23;;;;;;;23.55;12.73;;;;;;;9.53;100.00;98668.72;4951418;28;20106;-83
2021/11/20 06:44:52;;;;;;;28.00;13.40;;;;;;;9.59;100.00;98668.41;4953570;28;20113;-86
2021/11/20 06:47:19;;;;;;;23.20;12.70;;;;;;;9.55;100.00;98664.63;4968925;28;20050;-85
2021/11/20 06:49:45;;;;;;;25.55;12.48;;;;;;;9.45;100.00;98651.22;4957644;28;20055;-85
2021/11/20 06:52:15;;;;;;;24.35;13.18;;;;;;;9.56;100.00;98658.16;4952364;28;20122;-85
2021/11/20 06:54:42;;;;;;;27.63;13.20;;;;;;;9.55;100.00;98653.81;4972035;28;20256;-82
2021/11/20 06:57:11;;;;;;;23.08;13.43;;;;;;;9.62;100.00;98673.25;4970916;28;20181;-85
2021/11/20 07:02:35;;;;;;;23.63;14.30;;;;;;;9.46;100.00;98650.13;4951971;28;20326;-85
2021/11/20 07:05:04;;;;;;;27.80;14.38;;;;;;;9.57;100.00;98673.28;4960048;28;20578;-84
2021/11/20 07:07:34;;;;;;;26.58;15.13;;;;;;;9.58;100.00;98676.78;4967008;28;20082;-85
2021/11/20 07:10:04;;;;;;;27.55;15.40;;;;;;;9.68;100.00;98674.03;4969501;28;20051;-86
2021/11/20 07:12:32;;;;;;;26.13;14.90;;;;;;;9.70;100.00;98677.25;4952181;28;20055;-85
2021/11/20 07:14:58;;;;;;;31.52;15.85;;;;;;;9.63;100.00;98669.44;4949693;28;20436;-86
2021/11/20 07:17:28;;;;;;;32.25;16.13;;;;;;;9.44;100.00;98665.81;4961815;28;20590;-82
2021/11/20 07:19:55;;;;;;;27.92;15.55;;;;;;;9.56;100.00;98676.25;4948785;28;20110;-84
2021/11/20 07:22:22;;;;;;;36.53;17.30;;;;;;;9.54;100.00;98675.75;4948129;28;20086;-86
2021/11/20 07:24:48;;;;;;;35.88;16.95;;;;;;;9.36;100.00;98655.63;4961996;28;20059;-85
2021/11/20 07:27:15;;;;;;;34.65;17.02;;;;;;;9.56;100.00;98685.19;4965846;28;20058;-82
2021/11/20 07:29:43;;;;;;;30.83;16.67;;;;;;;9.44;100.00;98679.34;4968884;28;20450;-81
2021/11/20 07:32:09;;;;;;;32.72;16.92;;;;;;;9.52;100.00;98678.75;4963979;28;20137;-84
2021/11/20 07:34:37;;;;;;;38.30;17.05;;;;;;;9.51;100.00;98682.53;4955791;28;20112;-84
2021/11/20 07:37:04;;;;;;;35.20;17.00;;;;;;;9.48;100.00;98680.38;4971021;28;20046;-82
2021/11/20 07:39:32;;;;;;;32.95;17.23;;;;;;;9.55;100.00;98682.78;4967570;28;20107;-82
2021/11/20 07:41:58;;;;;;;33.63;17.88;;;;;;;9.57;100.00;98664.38;4960057;28;20051;-88
2021/11/20 07:44:25;;;;;;;35.15;17.20;;;;;;;9.48;100.00;98657.94;4953202;28;20050;-86
2021/11/20 07:46:52;;;;;;;31.23;16.27;;;;;;;9.61;100.00;98678.94;4957735;28;20059;-86
2021/11/20 07:49:19;;;;;;;31.85;16.60;;;;;;;9.57;100.00;98661.66;4961029;28;20062;-85
2021/11/20 07:51:46;;;;;;;34.63;17.70;;;;;;;9.55;100.00;98674.66;4944534;29;20109;-84
2021/11/20 07:54:13;;;;;;;31.25;16.23;;;;;;;9.49;100.00;98663.09;4947090;29;20440;-82
2021/11/20 07:56:42;;;;;;;33.05;17.65;;;;;;;9.58;100.00;98660.56;4945572;28;20551;-85
2021/11/20 07:59:11;;;;;;;35.00;16.50;;;;;;;9.59;100.00;98648.66;4977504;28;20480;-84
2021/11/20 08:01:38;;;;;;;35.15;17.45;;;;;;;9.76;100.00;98657.97;4950954;28;20055;-84
2021/11/20 08:04:06;;;;;;;31.13;16.83;;;;;;;9.74;100.00;98657.47;4953155;28;20059;-86
2021/11/20 08:06:33;;;;;;;34.03;17.55;;;;;;;9.76;100.00;98647.16;4962526;28;20047;-86
2021/11/20 08:09:03;;;;;;;33.63;18.45;;;;;;;9.70;100.00;98653.72;4953339;28;20059;-84
2021/11/20 08:11:31;;;;;;;37.53;17.20;;;;;;;9.73;100.00;98653.13;4948860;29;20055;-83
2021/11/20 08:14:01;;;;;;;33.67;17.17;;;;;;;9.66;100.00;98649.94;4974745;28;20052;-84
2021/11/20 08:16:29;;;;;;;34.83;17.63;;;;;;;9.58;100.00;98636.22;4968855;28;20117;-84
2021/11/20 08:18:57;;;;;;;35.33;18.38;;;;;;;9.51;100.00;98651.97;4962257;28;20059;-84
2021/11/20 08:21:25;;;;;;;34.75;17.95;;;;;;;9.47;100.00;98648.25;4953591;28;20075;-81
2021/11/20 08:23:52;;;;;;;34.83;17.90;;;;;;;9.45;100.00;98640.41;4936935;29;20059;-82
2021/11/20 08:26:20;;;;;;;36.22;18.85;;;;;;;9.54;100.00;98644.13;4961047;28;20047;-85
2021/11/20 08:28:47;;;;;;;34.33;18.35;;;;;;;9.49;100.00;98646.88;4935533;29;20059;-82
2021/11/20 08:31:13;;;;;;;34.97;18.35;;;;;;;9.57;100.00;98648.97;4946112;28;20058;-85
2021/11/20 08:33:40;;;;;;;37.97;18.17;;;;;;;9.47;100.00;98640.13;4955077;28;20073;-82
2021/11/20 08:36:11;;;;;;;41.15;18.90;;;;;;;9.59;100.00;98645.97;4955606;28;20510;-86
2021/11/20 08:38:39;;;;;;;37.10;18.80;;;;;;;9.52;100.00;98646.31;4952394;28;20059;-84
2021/11/20 08:41:08;;;;;;;33.63;18.48;;;;;;;9.51;100.00;98649.28;4950250;29;20483;-82
2021/11/20 08:43:35;;;;;;;40.28;18.98;;;;;;;9.49;100.00;98643.34;4967717;28;20063;-79
2021/11/20 08:46:04;;;;;;;42.85;19.48;;;;;;;9.46;100.00;98636.63;4945939;28;20047;-80
2021/11/20 08:48:35;;;;;;;42.25;19.60;;;;;;;9.57;100.00;98646.25;4951990;28;20510;-82
2021/11/20 08:51:12;;;;;;;40.67;20.25;;;;;;;9.45;100.00;98642.28;4971780;28;20062;-83
2021/11/20 08:53:40;;;;;;;37.90;19.98;;;;;;;9.42;100.00;98643.66;4965755;28;20063;-80
2021/11/20 08:56:07;;;;;;;39.15;19.27;;;;;;;9.39;100.00;98636.13;4948827;29;20071;-78
2021/11/20 08:58:35;;;;;;;39.58;20.42;;;;;;;9.39;100.00;98642.31;4961528;28;20482;-80
2021/11/20 09:01:12;;;;;;;41.33;20.52;;;;;;;9.42;100.00;98640.16;4954922;28;20055;-80
2021/11/20 09:03:46;;;;;;;34.88;18.95;;;;;;;9.37;100.00;98641.81;4955254;29;20059;-82
2021/11/20 09:06:35;;;;;;;38.38;20.05;;;;;;;9.36;100.00;98631.28;4953960;28;20055;-82
2021/11/20 09:09:50;;;;;;;39.85;20.23;;;;;;;9.36;100.00;98634.00;4935138;29;20047;-83
2021/11/20 09:12:29;;;;;;;38.38;19.45;;;;;;;9.37;100.00;98639.09;4919077;29;20055;-81
2021/11/20 09:15:18;;;;;;;49.90;21.23;;;;;;;9.37;100.00;98639.09;4935790;29;20118;-80
2021/11/20 09:17:47;;;;;;;40.25;20.20;;;;;;;9.47;100.00;98632.03;4942670;28;20054;-81
2021/11/20 09:20:14;;;;;;;41.17;20.92;;;;;;;9.45;100.00;98626.88;4935178;29;20059;-82
2021/11/20 09:22:40;;;;;;;38.63;19.40;;;;;;;9.54;100.00;98632.50;4957623;28;20055;-81
2021/11/20 09:25:08;;;;;;;37.88;19.85;;;;;;;9.59;100.00;98640.56;4956960;28;20130;-81
2021/11/20 09:27:55;;;;;;;40.90;19.13;;;;;;;9.57;100.00;98629.22;4939184;29;20146;-83
2021/11/20 09:30:46;;;;;;;34.45;19.17;;;;;;;9.58;100.00;98620.81;4953356;28;20051;-81
2021/11/20 09:33:14;;;;;;;36.28;19.42;;;;;;;9.48;100.00;98618.22;4944148;28;20098;-79
2021/11/20 09:35:42;;;;;;;39.38;20.40;;;;;;;9.49;100.00;98629.84;4974497;28;20059;-80
2021/11/20 09:38:09;;;;;;;37.85;19.60;;;;;;;9.49;100.00;98622.53;4966985;28;20128;-82
2021/11/20 09:40:39;;;;;;;40.05;20.55;;;;;;;9.44;100.00;98625.28;4945545;28;20158;-82
2021/11/20 09:43:09;;;;;;;40.80;20.52;;;;;;;9.51;100.00;98627.66;4980421;23;20078;-78
2021/11/20 09:45:42;;;;;;;41.83;21.23;;;;;;;9.52;100.00;98621.97;4965302;28;20054;-79
2021/11/20 09:48:18;;;;;;;40.35;21.70;;;;;;;9.54;100.00;98627.91;4965892;28;20062;-77
2021/11/20 09:50:53;;;;;;;38.95;21.13;;;;;;;9.53;100.00;98620.88;4954674;28;20066;-78
2021/11/20 09:53:21;;;;;;;44.50;22.13;;;;;;;9.61;100.00;98617.56;4949310;29;20055;-81
2021/11/20 09:55:56;;;;;;;41.33;21.58;;;;;;;9.67;100.00;98616.44;4954953;28;20059;-80
2021/11/20 09:58:46;;;;;;;46.65;23.00;;;;;;;9.59;100.00;98618.94;4949413;28;20063;-81
2021/11/20 10:01:49;;;;;;;42.58;21.15;;;;;;;9.66;100.00;98616.69;4949640;29;20055;-82
2021/11/20 10:04:30;;;;;;;43.00;22.38;;;;;;;9.50;100.00;98607.91;4952087;28;20044;-81
2021/11/20 10:07:40;;;;;;;44.95;23.23;;;;;;;9.61;100.00;98609.44;4947034;28;20051;-80
2021/11/20 10:10:33;;;;;;;43.78;22.83;;;;;;;9.61;100.00;98606.75;4897123;29;20052;-82
2021/11/20 10:13:17;;;;;;;46.35;24.23;;;;;;;9.61;100.00;98601.34;4903389;29;20064;-79
2021/11/20 10:16:03;;;;;;;43.63;22.90;;;;;;;9.62;100.00;98594.84;4964486;28;20134;-81
2021/11/20 10:18:52;;;;;;;40.50;20.98;;;;;;;9.61;100.00;98590.53;4966554;28;20058;-84
2021/11/20 10:22:09;;;;;;;37.15;20.15;;;;;;;9.52;100.00;98586.84;4950134;28;20077;-86
2021/11/20 10:24:47;;;;;;;43.58;21.15;;;;;;;9.50;100.00;98589.00;4886526;29;20061;-81
2021/11/20 10:27:58;;;;;;;37.50;20.23;;;;;;;9.48;100.00;98574.97;4885665;29;20052;-82
2021/11/20 10:30:35;;;;;;;42.78;21.48;;;;;;;9.55;100.00;98580.84;4951068;28;20046;-81
2021/11/20 10:33:11;;;;;;;41.67;21.98;;;;;;;9.50;100.00;98580.09;4962870;28;20111;-80
2021/11/20 10:35:44;;;;;;;;;;;;;;;9.52;100.00;98565.22;4965264;28;20054;-85
2021/11/20 10:38:20;;;;;;;37.05;19.70;;;;;;;9.46;100.00;98568.22;4965483;28;19930;-77
2021/11/20 10:41:19;;;;;;;40.28;22.00;;;;;;;9.54;100.00;98562.22;4957371;28;20490;-78
2021/11/20 10:43:52;;;;;;;39.80;20.90;;;;;;;9.63;100.00;98558.59;4897551;28;20066;-82
2021/11/20 10:46:22;;;;;;;36.90;19.88;;;;;;;9.62;100.00;98556.19;4953025;28;20047;-81
2021/11/20 10:49:13;;;;;;;35.60;20.42;;;;;;;9.46;100.00;98546.63;4958201;28;20472;-79
2021/11/20 10:52:01;;;;;;;36.70;20.50;;;;;;;9.64;100.00;98548.59;4952900;28;20145;-80
2021/11/20 10:54:47;;;;;;;39.80;20.42;;;;;;;9.59;100.00;98543.25;4946274;28;20047;-79
2021/11/20 10:57:25;;;;;;;36.03;20.27;;;;;;;9.56;100.00;98539.22;4947352;28;20681;-78
2021/11/20 11:00:26;;;;;;;37.55;20.98;;;;;;;9.56;100.00;98531.09;4951422;28;20158;-78
2021/11/20 11:03:17;;;;;;;35.47;20.23;;;;;;;9.54;100.00;98527.88;4948843;28;20059;-80
2021/11/20 11:06:12;;;;;;;38.47;21.02;;;;;;;9.62;100.00;98529.16;4950062;29;20424;-78
2021/11/20 11:08:44;;;;;;;36.50;19.65;;;;;;;9.57;100.00;98530.03;4956504;28;20075;-78
2021/11/20 11:11:26;;;;;;;35.97;20.17;;;;;;;9.62;100.00;98524.56;4962215;28;20071;-79
2021/11/20 11:14:02;;;;;;;33.85;20.08;;;;;;;9.68;100.00;98512.56;4950183;28;20067;-79
2021/11/20 11:16:35;;;;;;;33.70;20.48;;;;;;;9.70;100.00;98506.91;4950549;28;20777;-79
2021/11/20 11:19:05;;;;;;;32.90;20.65;;;;;;;9.72;100.00;98508.22;4950584;28;20058;-79
2021/11/20 11:21:56;;;;;;;36.47;21.45;;;;;;;9.68;100.00;98495.56;4956062;28;20050;-80
2021/11/20 11:24:41;;;;;;;36.90;20.95;;;;;;;9.68;100.00;98504.47;4965701;28;20127;-80
2021/11/20 11:27:16;;;;;;;38.72;22.45;;;;;;;9.69;100.00;98503.38;4970814;28;20089;-79
2021/11/20 11:30:06;;;;;;;35.33;21.75;;;;;;;9.58;100.00;98495.66;4967371;28;20086;-77
2021/11/20 11:32:35;;;;;;;37.10;20.50;;;;;;;9.56;100.00;98490.56;4966383;28;20262;-78
2021/11/20 11:35:13;;;;;;;39.22;21.23;;;;;;;9.56;100.00;98487.03;4967989;28;20062;-81
2021/11/20 11:37:49;;;;;;;39.90;22.27;;;;;;;9.59;100.00;98484.59;4964922;28;20161;-79
2021/11/20 11:40:30;;;;;;;;;;;;;;;9.57;100.00;98483.25;4967285;28;20067;-77
2021/11/20 11:43:21;;;;;;;40.60;21.77;;;;;;;9.62;100.00;98473.19;4965133;28;19980;-80
2021/11/20 11:45:57;;;;;;;35.97;19.70;;;;;;;9.54;100.00;98471.13;4960835;28;20055;-80